Time;durP1;ratioP1;P1;durP2;ratioP2;P2;SDS_P1;SDS_P2;PMS_P1;PMS_P2;Temp;Humidity;BMP_temperature;BMP_pressure;BME280_temperature;BME280_humidity;BME280_pressure;Samples;Min_cycle;Max_cycle;Signal;HPM_P1;HPM_P2
2024/01/03 00:00:25;;;;;;;10.50;7.78;;;;;;;9.35;58.75;98579.34;4906030;29;20119;-73
2024/01/03 00:02:51;;;;;;;12.60;7.80;;;;;;;9.34;58.63;98575.88;4921008;29;20046;-71
2024/01/03 00:05:37;;;;;;;12.65;7.30;;;;;;;9.34;58.92;98585.50;4940973;29;20118;-72
2024/01/03 00:08:04;;;;;;;9.63;6.80;;;;;;;9.28;58.71;98573.72;4909249;29;20038;-72
2024/01/03 00:10:46;;;;;;;11.73;7.65;;;;;;;9.33;58.76;98583.81;4940979;29;20501;-73
2024/01/03 00:13:29;;;;;;;11.23;7.30;;;;;;;9.32;58.83;98583.00;4925149;29;20398;-73
2024/01/03 00:16:01;;;;;;;11.43;7.57;;;;;;;9.32;58.88;98584.78;4957399;29;20446;-73
2024/01/03 00:18:33;;;;;;;10.77;6.95;;;;;;;9.30;58.92;98577.06;4957455;29;20062;-73
2024/01/03 00:20:59;;;;;;;11.48;7.63;;;;;;;9.30;58.58;98584.88;4940275;29;20431;-73
2024/01/03 00:23:27;;;;;;;10.77;7.30;;;;;;;9.30;58.80;98582.28;4924176;29;20151;-73
2024/01/03 00:25:52;;;;;;;11.35;7.18;;;;;;;9.26;58.74;98570.41;4908832;29;20198;-74
2024/01/03 00:28:18;;;;;;;11.00;7.63;;;;;;;9.31;58.72;98577.91;4924661;29;20482;-71
2024/01/03 00:30:43;;;;;;;10.73;7.43;;;;;;;9.32;58.94;98571.75;4908719;29;20034;-72
2024/01/03 00:33:09;;;;;;;11.70;7.22;;;;;;;9.30;58.81;98579.69;4940465;29;20031;-72
2024/01/03 00:35:34;;;;;;;11.52;7.43;;;;;;;9.33;58.73;98570.78;4924384;29;20032;-73
2024/01/03 00:38:00;;;;;;;11.95;7.28;;;;;;;9.38;58.86;98576.50;4907885;29;20043;-72
2024/01/03 00:40:31;;;;;;;9.75;6.72;;;;;;;9.39;58.78;98584.22;4939946;29;20039;-72
2024/01/03 00:42:57;;;;;;;11.00;7.18;;;;;;;9.39;58.78;98581.63;4940552;29;20042;-72
2024/01/03 00:45:22;;;;;;;12.25;7.38;;;;;;;9.41;58.95;98581.50;4940372;29;20031;-74
2024/01/03 00:47:48;;;;;;;11.52;7.38;;;;;;;9.42;58.87;98580.53;4924136;29;20475;-72
2024/01/03 00:50:14;;;;;;;10.52;7.00;;;;;;;9.40;58.68;98580.66;4924234;29;20081;-72
2024/01/03 00:52:40;;;;;;;12.05;6.85;;;;;;;9.41;58.81;98584.09;4923777;29;20031;-74
2024/01/03 00:55:06;;;;;;;10.13;6.80;;;;;;;9.44;58.80;98578.66;4923033;29;20142;-71
2024/01/03 00:57:31;;;;;;;10.88;7.05;;;;;;;9.47;58.81;98578.44;4908556;29;20054;-69
2024/01/03 00:59:57;;;;;;;10.82;7.35;;;;;;;9.48;58.68;98590.50;4939606;29;20031;-71
2024/01/03 01:02:22;;;;;;;10.57;6.72;;;;;;;9.50;58.84;98583.41;4939541;29;20101;-73
2024/01/03 01:04:48;;;;;;;11.23;7.03;;;;;;;9.52;58.70;98585.88;4940006;29;20054;-73
2024/01/03 01:07:13;;;;;;;10.07;6.90;;;;;;;9.52;58.76;98573.72;4923367;29;20094;-73
2024/01/03 01:09:39;;;;;;;10.40;6.82;;;;;;;9.54;58.83;98579.63;4939579;29;20038;-73
2024/01/03 01:12:04;;;;;;;9.05;6.40;;;;;;;9.51;58.77;98569.44;4939180;29;20110;-73
2024/01/03 01:14:30;;;;;;;10.50;7.15;;;;;;;9.56;58.57;98569.91;4923441;29;20110;-72
2024/01/03 01:16:55;;;;;;;9.77;6.55;;;;;;;9.55;58.72;98570.03;4956764;29;20050;-73
2024/01/03 01:19:21;;;;;;;10.30;6.57;;;;;;;9.56;58.85;98566.50;4956695;29;20031;-72
2024/01/03 01:21:46;;;;;;;10.98;6.55;;;;;;;9.55;58.72;98559.59;4939325;29;20094;-72
2024/01/03 01:24:12;;;;;;;10.10;6.90;;;;;;;9.56;58.64;98563.88;4922415;29;20055;-72
2024/01/03 01:26:37;;;;;;;10.80;6.90;;;;;;;9.55;58.94;98560.47;4956463;29;20035;-74
2024/01/03 01:29:03;;;;;;;10.75;6.03;;;;;;;9.53;58.63;98551.91;4955228;29;20043;-72
2024/01/03 01:31:28;;;;;;;9.43;6.70;;;;;;;9.57;58.61;98549.91;4907625;29;20051;-72
2024/01/03 01:33:54;;;;;;;10.63;6.43;;;;;;;9.53;58.88;98533.66;4939185;29;20046;-72
2024/01/03 01:36:19;;;;;;;9.95;6.95;;;;;;;9.56;58.57;98541.25;4939201;29;20027;-72
2024/01/03 01:38:45;;;;;;;11.77;6.47;;;;;;;9.56;58.77;98543.84;4923102;29;20046;-73
2024/01/03 01:41:10;;;;;;;10.93;6.32;;;;;;;9.56;58.89;98545.63;4956154;29;20042;-72
2024/01/03 01:43:36;;;;;;;9.48;6.50;;;;;;;9.57;58.68;98547.31;4956345;29;20043;-73
2024/01/03 01:46:01;;;;;;;10.50;6.65;;;;;;;9.57;58.79;98557.72;4955961;29;20035;-73
2024/01/03 01:48:26;;;;;;;10.68;6.47;;;;;;;9.54;58.70;98542.34;4907242;29;20471;-73
2024/01/03 01:50:52;;;;;;;10.55;6.82;;;;;;;9.57;58.85;98547.31;4939008;29;20129;-73
2024/01/03 01:53:17;;;;;;;12.38;7.10;;;;;;;9.57;58.56;98545.53;4938773;29;20476;-74
2024/01/03 01:55:43;;;;;;;11.18;6.93;;;;;;;9.58;58.77;98555.00;4923180;29;20090;-73
2024/01/03 01:58:08;;;;;;;11.13;6.43;;;;;;;9.54;58.51;98542.34;4923038;29;20118;-75
2024/01/03 02:00:34;;;;;;;9.80;6.63;;;;;;;9.55;58.71;98543.97;4938687;29;20066;-71
2024/01/03 02:02:59;;;;;;;10.63;7.10;;;;;;;9.60;59.00;98544.47;4938955;29;20038;-73
2024/01/03 02:05:25;;;;;;;11.52;6.75;;;;;;;9.59;58.67;98546.22;4938662;29;20110;-73
2024/01/03 02:07:51;;;;;;;10.38;6.88;;;;;;;9.62;58.64;98544.38;4922824;29;20031;-72
2024/01/03 02:10:16;;;;;;;9.45;6.55;;;;;;;9.62;58.78;98549.56;4922703;29;20038;-74
2024/01/03 02:12:42;;;;;;;11.68;6.90;;;;;;;9.63;58.64;98548.59;4906792;29;20028;-75
2024/01/03 02:15:08;;;;;;;10.50;6.82;;;;;;;9.63;58.78;98543.41;4955428;29;20035;-73
2024/01/03 02:17:33;;;;;;;10.60;7.30;;;;;;;9.63;58.77;98540.78;4938568;29;20486;-73
2024/01/03 02:20:00;;;;;;;13.07;7.35;;;;;;;9.59;59.03;98535.81;4922692;29;20027;-73
2024/01/03 02:22:29;;;;;;;12.38;6.88;;;;;;;9.64;58.86;98542.47;4906801;29;20384;-74
2024/01/03 02:24:54;;;;;;;;;;;;;;;9.65;58.86;98537.13;4923472;29;20055;-72
2024/01/03 02:27:20;;;;;;;11.70;7.47;;;;;;;9.63;58.92;98528.59;4954678;28;19921;-74
2024/01/03 02:29:45;;;;;;;13.60;7.75;;;;;;;9.62;58.92;98523.50;4937561;29;20494;-72
2024/01/03 02:32:11;;;;;;;12.75;7.82;;;;;;;9.62;58.83;98524.34;4921928;29;20047;-73
2024/01/03 02:34:36;;;;;;;12.93;7.90;;;;;;;9.58;59.05;98518.53;4922659;29;20031;-73
2024/01/03 02:37:02;;;;;;;12.43;7.57;;;;;;;9.65;59.00;98531.09;4954064;29;20043;-73
2024/01/03 02:39:27;;;;;;;11.25;7.50;;;;;;;9.62;59.12;98516.50;4906406;29;20142;-72
2024/01/03 02:41:53;;;;;;;13.48;7.75;;;;;;;9.61;58.93;98512.25;4937941;29;20031;-71
2024/01/03 02:44:21;;;;;;;13.15;7.80;;;;;;;9.65;59.23;98512.84;4938176;29;20035;-72
2024/01/03 02:46:47;;;;;;;12.88;7.43;;;;;;;9.66;59.18;98517.97;4953978;29;20070;-73
2024/01/03 02:49:12;;;;;;;13.10;7.60;;;;;;;9.66;59.11;98506.69;4938011;29;20517;-72
2024/01/03 02:51:38;;;;;;;12.80;7.18;;;;;;;9.65;58.62;98503.25;4937700;29;20035;-73
2024/01/03 02:54:03;;;;;;;13.30;8.02;;;;;;;9.61;59.15;98496.59;4922061;29;20027;-73
2024/01/03 02:56:29;;;;;;;13.02;7.97;;;;;;;9.67;59.34;98503.13;4937806;29;20064;-73
2024/01/03 02:58:54;;;;;;;13.52;7.97;;;;;;;9.65;59.06;98492.81;4937875;29;20031;-73
2024/01/03 03:01:20;;;;;;;14.43;7.60;;;;;;;9.68;58.99;98505.63;4937581;29;20051;-72
2024/01/03 03:03:45;;;;;;;14.02;7.82;;;;;;;9.68;58.94;98504.81;4937703;29;20035;-73
2024/01/03 03:06:10;;;;;;;13.18;8.30;;;;;;;9.68;58.94;98502.19;4954659;29;20478;-73
2024/01/03 03:08:36;;;;;;;14.35;8.45;;;;;;;9.68;58.94;98497.00;4937809;29;20118;-73
2024/01/03 03:11:03;;;;;;;13.57;8.10;;;;;;;9.69;59.02;98509.88;4937059;29;20039;-72
2024/01/03 03:13:28;;;;;;;17.92;8.43;;;;;;;9.64;59.28;98503.38;4921694;29;20045;-72
2024/01/03 03:15:53;;;;;;;14.13;8.25;;;;;;;9.64;58.88;98498.97;4921850;29;20039;-72
2024/01/03 03:18:19;;;;;;;16.95;8.88;;;;;;;9.69;59.15;98504.66;4920247;29;20538;-72
2024/01/03 03:20:45;;;;;;;17.20;8.95;;;;;;;9.69;59.25;98515.09;4954321;29;20039;-71
2024/01/03 03:23:10;;;;;;;13.32;7.70;;;;;;;9.66;59.10;98501.47;4954157;29;20047;-74
2024/01/03 03:25:35;;;;;;;14.95;8.60;;;;;;;9.68;59.25;98495.19;4937342;29;20031;-72
2024/01/03 03:28:07;;;;;;;12.40;7.97;;;;;;;9.70;59.16;98487.25;4953017;29;20059;-72
2024/01/03 03:30:34;;;;;;;14.60;8.80;;;;;;;9.67;59.34;98482.28;4938076;29;20070;-73
2024/01/03 03:33:00;;;;;;;15.27;8.00;;;;;;;9.70;59.30;98490.69;4937228;29;20442;-72
2024/01/03 03:35:25;;;;;;;14.60;8.13;;;;;;;9.70;59.28;98482.06;4921322;29;20031;-74
2024/01/03 03:37:51;;;;;;;13.50;8.18;;;;;;;9.66;59.20;98472.78;4937284;29;20027;-72
2024/01/03 03:40:16;;;;;;;14.18;8.60;;;;;;;9.65;59.14;98471.16;4921489;29;20043;-74
2024/01/03 03:42:48;;;;;;;12.73;8.13;;;;;;;9.68;59.26;98484.78;4953016;29;20035;-73
2024/01/03 03:45:13;;;;;;;16.60;7.97;;;;;;;9.68;59.19;98481.34;4921394;29;20114;-72
2024/01/03 03:47:39;;;;;;;12.75;7.60;;;;;;;9.64;59.07;98477.31;4921207;29;20093;-72
2024/01/03 03:50:05;;;;;;;13.10;8.00;;;;;;;9.67;59.08;98474.47;4920831;29;20051;-72
2024/01/03 03:52:30;;;;;;;16.30;8.63;;;;;;;9.65;59.19;98471.16;4936945;29;20031;-72
2024/01/03 03:54:56;;;;;;;14.45;7.85;;;;;;;9.64;59.24;98472.91;4921245;29;20108;-73
2024/01/03 03:57:21;;;;;;;12.98;7.90;;;;;;;9.67;59.20;98480.50;4937174;29;20463;-73
2024/01/03 03:59:47;;;;;;;14.18;7.75;;;;;;;9.67;59.04;98469.25;4920991;29;20467;-71
2024/01/03 04:02:12;;;;;;;13.10;7.60;;;;;;;9.66;59.21;98476.25;4954749;29;20074;-71
2024/01/03 04:04:38;;;;;;;14.40;8.00;;;;;;;9.67;58.98;98477.91;4936931;29;20402;-71
2024/01/03 04:07:04;;;;;;;13.30;7.85;;;;;;;9.65;58.90;98469.38;4920788;29;20032;-72
2024/01/03 04:09:29;;;;;;;12.55;7.38;;;;;;;9.67;59.15;98477.91;4936917;29;20063;-72
2024/01/03 04:11:55;;;;;;;11.90;6.90;;;;;;;9.65;59.13;98478.97;4936946;29;20078;-71
2024/01/03 04:14:21;;;;;;;11.77;7.30;;;;;;;9.59;59.10;98473.25;4954059;29;20031;-73
2024/01/03 04:16:46;;;;;;;11.85;6.78;;;;;;;9.60;59.08;98471.50;4952831;29;20035;-72
2024/01/03 04:19:11;;;;;;;13.02;7.60;;;;;;;9.59;59.13;98462.03;4920536;29;20035;-71
2024/01/03 04:21:37;;;;;;;12.90;7.43;;;;;;;9.64;59.05;98472.09;4937032;29;20053;-71
2024/01/03 04:24:03;;;;;;;10.48;6.68;;;;;;;9.63;59.13;98462.59;4920614;29;20063;-71
2024/01/03 04:26:28;;;;;;;11.20;6.80;;;;;;;9.58;59.10;98463.81;4953777;29;20023;-72
2024/01/03 04:28:54;;;;;;;11.90;6.45;;;;;;;9.62;59.15;98477.41;4952705;29;20031;-72
2024/01/03 04:31:19;;;;;;;12.55;7.38;;;;;;;9.62;59.15;98476.59;4904480;29;20130;-77
2024/01/03 04:33:45;;;;;;;13.60;7.28;;;;;;;9.60;58.99;98474.13;4952653;29;20110;-74
2024/01/03 04:36:11;;;;;;;10.55;6.45;;;;;;;9.60;59.01;98474.94;4917553;29;20032;-70
2024/01/03 04:38:36;;;;;;;10.63;6.97;;;;;;;9.61;59.05;98473.16;4917406;29;20048;-72
2024/01/03 04:41:02;;;;;;;11.70;7.15;;;;;;;9.60;59.00;98474.13;4917416;29;20032;-69
2024/01/03 04:43:28;;;;;;;10.18;5.95;;;;;;;9.62;60.98;98463.56;4917641;29;20110;-69
2024/01/03 04:45:54;;;;;;;11.60;6.28;;;;;;;9.65;62.12;98464.16;4901769;29;20028;-69
2024/01/03 04:48:20;;;;;;;10.63;5.82;;;;;;;9.69;61.44;98467.34;4917552;29;20055;-71
2024/01/03 04:50:45;;;;;;;9.02;5.10;;;;;;;9.87;68.11;98465.13;4920487;29;20035;-69
2024/01/03 04:53:11;;;;;;;7.72;3.83;;;;;;;10.19;73.69;98470.41;4938053;29;20494;-70
2024/01/03 04:55:36;;;;;;;18.23;5.32;;;;;;;10.32;74.06;98465.88;4921172;29;20032;-69
2024/01/03 04:58:02;;;;;;;13.98;6.32;;;;;;;10.29;70.56;98468.75;4921050;29;20055;-70
2024/01/03 05:00:27;;;;;;;18.63;7.25;;;;;;;10.18;68.60;98465.31;4920692;29;20079;-71
2024/01/03 05:02:54;;;;;;;17.00;7.78;;;;;;;10.17;67.43;98472.31;4920679;29;20395;-68
2024/01/03 05:05:19;;;;;;;16.40;8.63;;;;;;;10.10;66.87;98486.78;4920630;29;20036;-69
2024/01/03 05:07:45;;;;;;;19.00;9.77;;;;;;;10.05;66.24;98483.69;4920630;29;20412;-73
2024/01/03 05:10:10;;;;;;;17.25;9.60;;;;;;;9.99;65.91;98485.00;4921024;29;20044;-70
2024/01/03 05:12:36;;;;;;;21.88;11.23;;;;;;;9.93;65.47;98486.31;4920472;29;20044;-72
2024/01/03 05:15:04;;;;;;;18.73;11.13;;;;;;;9.91;65.02;98482.97;4904582;29;20035;-72
2024/01/03 05:17:29;;;;;;;23.05;11.95;;;;;;;9.84;64.80;98481.81;4920291;29;20023;-71
2024/01/03 05:19:56;;;;;;;17.80;11.00;;;;;;;9.81;64.82;98470.81;4920188;29;20111;-71
2024/01/03 05:22:21;;;;;;;20.90;12.23;;;;;;;9.78;64.53;98471.84;4920239;29;20047;-71
2024/01/03 05:24:47;;;;;;;21.88;13.40;;;;;;;9.77;64.26;98472.78;4919726;29;20051;-71
2024/01/03 05:27:12;;;;;;;24.67;12.88;;;;;;;9.90;67.73;98470.91;4921437;29;20032;-72
2024/01/03 05:29:38;;;;;;;15.80;8.63;;;;;;;10.11;70.36;98481.44;4920280;29;20035;-73
2024/01/03 05:32:04;;;;;;;18.13;10.20;;;;;;;10.13;69.49;98486.53;4920290;29;20028;-72
2024/01/03 05:34:29;;;;;;;23.23;12.00;;;;;;;10.09;68.30;98487.75;4920684;29;20070;-72
2024/01/03 05:36:55;;;;;;;22.25;12.20;;;;;;;10.01;67.46;98490.09;4937601;29;20035;-72
2024/01/03 05:39:20;;;;;;;19.38;11.73;;;;;;;9.94;66.85;98492.34;4936025;29;20039;-72
2024/01/03 05:41:45;;;;;;;18.58;11.98;;;;;;;9.87;66.45;98486.78;4937000;29;20493;-73
2024/01/03 05:44:13;;;;;;;21.27;12.27;;;;;;;9.82;66.27;98480.25;4920003;29;20044;-73
2024/01/03 05:46:39;;;;;;;23.67;13.20;;;;;;;9.78;65.52;98477.06;4936921;29;20035;-73
2024/01/03 05:49:05;;;;;;;27.88;13.13;;;;;;;9.77;65.51;98475.41;4935878;29;20024;-73
2024/01/03 05:51:31;;;;;;;20.65;11.98;;;;;;;9.75;65.12;98480.72;4935769;29;20102;-72
2024/01/03 05:53:56;;;;;;;22.73;11.60;;;;;;;9.79;67.56;98486.56;4920097;29;20463;-72
2024/01/03 05:56:22;;;;;;;16.42;10.60;;;;;;;9.85;69.12;98473.06;4919229;29;20042;-73
2024/01/03 05:58:47;;;;;;;20.13;11.40;;;;;;;9.90;68.23;98483.13;4935613;29;20043;-72
2024/01/03 06:01:13;;;;;;;22.08;12.25;;;;;;;9.91;66.93;98482.16;4919474;29;20031;-72
2024/01/03 06:03:38;;;;;;;25.25;12.68;;;;;;;9.85;66.34;98480.03;4936671;29;20376;-72
2024/01/03 06:06:04;;;;;;;25.55;12.73;;;;;;;9.87;65.69;98501.63;4919218;29;20422;-72
2024/01/03 06:08:29;;;;;;;21.42;12.68;;;;;;;9.85;65.28;98482.63;4935439;29;20031;-72
2024/01/03 06:10:55;;;;;;;22.90;12.75;;;;;;;9.84;64.98;98488.81;4936841;29;20035;-72
2024/01/03 06:13:24;;;;;;;23.02;12.70;;;;;;;9.80;64.68;98487.38;4935248;29;20043;-72
2024/01/03 06:15:49;;;;;;;21.50;12.77;;;;;;;9.82;64.50;98493.28;4919430;29;20543;-71
2024/01/03 06:18:15;;;;;;;25.17;12.55;;;;;;;9.80;64.04;98490.81;4936170;29;20036;-72
2024/01/03 06:20:40;;;;;;;24.80;11.90;;;;;;;9.80;63.85;98488.19;4936253;29;20023;-72
2024/01/03 06:23:06;;;;;;;20.65;12.02;;;;;;;9.75;63.67;98485.94;4936212;29;20418;-72
2024/01/03 06:25:32;;;;;;;22.10;11.80;;;;;;;9.79;63.70;98510.03;4919527;29;20424;-73
2024/01/03 06:27:57;;;;;;;22.23;11.65;;;;;;;9.74;63.14;98501.69;4919342;29;20035;-72
2024/01/03 06:30:23;;;;;;;19.25;11.27;;;;;;;9.76;63.34;98500.66;4935035;29;20410;-73
2024/01/03 06:32:48;;;;;;;19.17;11.23;;;;;;;9.73;63.17;98498.28;4934265;29;20326;-72
2024/01/03 06:35:14;;;;;;;22.73;11.18;;;;;;;9.76;62.97;98497.22;4918997;29;20032;-72
2024/01/03 06:37:42;;;;;;;18.70;10.27;;;;;;;9.75;62.70;98485.94;4919041;29;20052;-72
2024/01/03 06:40:08;;;;;;;18.98;10.82;;;;;;;9.76;62.49;98495.44;4935844;29;20024;-70
2024/01/03 06:42:34;;;;;;;21.08;10.13;;;;;;;9.75;62.42;98506.81;4902091;29;20039;-73
2024/01/03 06:44:59;;;;;;;18.42;10.15;;;;;;;9.76;62.53;98507.66;4918805;29;20474;-72
2024/01/03 06:47:25;;;;;;;19.23;10.38;;;;;;;9.76;62.11;98521.50;4918964;29;20043;-74
2024/01/03 06:49:50;;;;;;;19.15;10.23;;;;;;;9.74;62.17;98515.59;4918846;29;20067;-72
2024/01/03 06:52:16;;;;;;;18.00;10.13;;;;;;;9.72;61.95;98514.84;4919071;29;20044;-72
2024/01/03 06:54:41;;;;;;;18.63;10.95;;;;;;;9.80;61.71;98508.22;4934819;29;20035;-72
2024/01/03 06:57:07;;;;;;;20.90;11.13;;;;;;;9.78;61.61;98503.97;4935760;29;20463;-72
2024/01/03 06:59:36;;;;;;;19.80;10.68;;;;;;;9.81;61.60;98505.50;4918197;29;20499;-72
2024/01/03 07:02:01;;;;;;;;;;;;;;;9.89;61.27;98503.13;4918834;29;20467;-71
2024/01/03 07:04:27;;;;;;;22.77;11.07;;;;;;;9.91;61.08;98498.63;4935923;29;19915;-72
2024/01/03 07:06:52;;;;;;;25.10;12.00;;;;;;;9.93;61.29;98495.91;4935582;29;20463;-73
2024/01/03 07:09:17;;;;;;;28.15;12.10;;;;;;;9.98;60.82;98487.72;4935817;29;20062;-71
2024/01/03 07:11:43;;;;;;;24.38;11.07;;;;;;;10.00;60.75;98484.06;4918235;29;20479;-72
2024/01/03 07:14:12;;;;;;;25.90;12.52;;;;;;;9.99;60.67;98487.59;4935285;29;20035;-73
2024/01/03 07:16:38;;;;;;;26.98;12.52;;;;;;;10.06;60.33;98486.19;4918971;29;20036;-72
2024/01/03 07:19:03;;;;;;;27.52;12.90;;;;;;;10.11;60.26;98481.44;4918389;29;20050;-72
2024/01/03 07:21:29;;;;;;;26.52;13.70;;;;;;;10.16;60.07;98491.50;4934187;29;20024;-73
2024/01/03 07:23:54;;;;;;;25.40;12.95;;;;;;;10.13;60.12;98487.34;4935227;29;20408;-72
2024/01/03 07:26:20;;;;;;;27.23;12.80;;;;;;;10.20;60.02;98485.13;4918350;29;20032;-72
2024/01/03 07:28:45;;;;;;;26.13;13.57;;;;;;;10.17;59.89;98479.28;4918327;29;20067;-74
2024/01/03 07:31:11;;;;;;;27.27;12.60;;;;;;;10.23;59.84;98477.06;4902664;29;20091;-75
2024/01/03 07:33:37;;;;;;;28.50;13.05;;;;;;;10.19;59.85;98475.63;4902459;29;20051;-72
2024/01/03 07:36:02;;;;;;;25.95;12.55;;;;;;;10.20;59.85;98472.06;4918518;29;20536;-72
2024/01/03 07:38:28;;;;;;;25.38;13.23;;;;;;;10.21;59.79;98473.72;4902159;29;20070;-73
2024/01/03 07:40:53;;;;;;;28.80;13.02;;;;;;;10.27;59.79;98477.63;4918326;29;20479;-73
2024/01/03 07:43:19;;;;;;;26.38;12.90;;;;;;;10.24;59.82;98467.44;4935508;29;20120;-73
2024/01/03 07:45:44;;;;;;;26.77;13.48;;;;;;;10.28;59.88;98477.50;4918175;29;20498;-72
2024/01/03 07:48:10;;;;;;;27.20;13.27;;;;;;;10.29;59.72;98479.19;4902704;29;20099;-73
2024/01/03 07:50:35;;;;;;;27.38;12.60;;;;;;;10.28;59.80;98474.91;4902626;29;20040;-71
2024/01/03 07:53:01;;;;;;;29.75;13.55;;;;;;;10.30;59.63;98478.19;4933938;29;20376;-72
2024/01/03 07:55:26;;;;;;;25.23;12.70;;;;;;;10.27;59.65;98473.22;4933968;29;20092;-72
2024/01/03 07:57:52;;;;;;;27.85;13.70;;;;;;;10.24;59.83;98463.03;4917960;29;20039;-73
2024/01/03 08:00:17;;;;;;;25.40;12.90;;;;;;;10.24;59.37;98460.44;4900754;29;20043;-72
2024/01/03 08:02:43;;;;;;;26.75;13.45;;;;;;;10.30;59.51;98470.38;4902401;29;20134;-72
2024/01/03 08:05:09;;;;;;;32.13;14.30;;;;;;;10.31;59.59;98481.66;4917875;29;20039;-72
2024/01/03 08:07:35;;;;;;;32.63;14.75;;;;;;;10.30;59.72;98474.78;4934042;29;20032;-73
2024/01/03 08:10:00;;;;;;;29.52;15.05;;;;;;;10.32;59.71;98478.94;4917877;29;20087;-72
2024/01/03 08:12:26;;;;;;;32.25;14.85;;;;;;;10.31;59.46;98474.66;4917977;29;20035;-71
2024/01/03 08:14:51;;;;;;;32.13;15.85;;;;;;;10.33;59.48;98469.34;4934867;29;20476;-71
2024/01/03 08:17:17;;;;;;;30.70;14.85;;;;;;;10.31;59.39;98463.41;4917860;29;20032;-72
2024/01/03 08:19:42;;;;;;;31.38;13.82;;;;;;;10.34;59.36;98471.00;4917940;29;20064;-74
2024/01/03 08:22:08;;;;;;;31.83;14.95;;;;;;;10.29;59.38;98471.34;4934796;29;20463;-72
2024/01/03 08:24:33;;;;;;;29.33;15.68;;;;;;;10.34;59.28;98472.78;4918474;29;20047;-71
2024/01/03 08:26:59;;;;;;;30.85;14.77;;;;;;;10.31;59.30;98472.03;4938402;29;20040;-72
2024/01/03 08:29:24;;;;;;;29.95;15.32;;;;;;;10.36;59.38;98469.09;4904937;29;20055;-72
2024/01/03 08:31:50;;;;;;;30.58;14.68;;;;;;;10.38;58.92;98467.19;4921017;29;20113;-73
2024/01/03 08:34:15;;;;;;;30.45;14.40;;;;;;;10.40;59.11;98454.03;4920494;29;20044;-74
2024/01/03 08:36:44;;;;;;;28.63;14.35;;;;;;;10.40;58.86;98449.63;4905606;29;20059;-72
2024/01/03 08:39:10;;;;;;;24.33;13.32;;;;;;;10.39;59.04;98445.38;4905119;29;20047;-72
2024/01/03 08:41:36;;;;;;;30.15;13.95;;;;;;;10.44;58.69;98442.41;4903784;29;20150;-71
2024/01/03 08:44:08;;;;;;;21.67;12.75;;;;;;;10.47;58.70;98432.53;4937074;29;20110;-72
2024/01/03 08:46:43;;;;;;;21.50;12.10;;;;;;;10.46;58.54;98415.22;4937123;29;20392;-72
2024/01/03 08:49:08;;;;;;;23.40;12.60;;;;;;;10.46;58.64;98419.63;4921670;29;20447;-70
2024/01/03 08:51:34;;;;;;;21.58;12.90;;;;;;;10.49;58.60;98440.25;4904284;29;20098;-72
2024/01/03 08:53:59;;;;;;;22.83;12.82;;;;;;;10.53;58.54;98420.78;4920978;29;20471;-74
2024/01/03 08:56:25;;;;;;;19.13;12.07;;;;;;;10.58;58.18;98428.22;4920834;29;20048;-71
2024/01/03 08:58:51;;;;;;;22.27;11.88;;;;;;;10.60;58.07;98427.16;4921143;29;20043;-72
2024/01/03 09:01:20;;;;;;;18.42;11.57;;;;;;;10.58;58.18;98412.56;4936617;29;20024;-74
2024/01/03 09:03:46;;;;;;;21.08;12.38;;;;;;;10.66;58.15;98424.03;4919861;29;20044;-71
2024/01/03 09:06:22;;;;;;;18.88;11.52;;;;;;;10.66;58.00;98407.56;4920868;29;20451;-72
2024/01/03 09:08:50;;;;;;;19.60;11.98;;;;;;;10.75;57.84;98408.56;4904812;29;20494;-71
2024/01/03 09:11:16;;;;;;;;;;;;;;;10.80;57.75;98401.19;4938127;29;20062;-71
2024/01/03 09:13:41;;;;;;;19.13;10.77;;;;;;;10.75;57.54;98385.06;4935866;29;19997;-73
2024/01/03 09:16:09;;;;;;;18.33;11.35;;;;;;;10.83;57.32;98399.16;4904744;29;20032;-72
2024/01/03 09:18:35;;;;;;;18.73;10.85;;;;;;;10.82;57.21;98373.19;4936426;29;20027;-72
2024/01/03 09:21:04;;;;;;;15.38;10.93;;;;;;;10.86;57.31;98370.19;4919878;29;20044;-73
2024/01/03 09:23:29;;;;;;;20.00;12.35;;;;;;;10.95;57.25;98368.59;4935545;29;20070;-72
2024/01/03 09:25:55;;;;;;;17.25;12.02;;;;;;;11.00;57.17;98381.25;4919373;29;20043;-72
2024/01/03 09:28:25;;;;;;;18.80;11.55;;;;;;;11.02;57.00;98372.34;4919477;29;20039;-72
2024/01/03 09:30:51;;;;;;;16.23;11.18;;;;;;;11.07;56.83;98371.97;4903112;29;20044;-72
2024/01/03 09:33:16;;;;;;;20.73;11.30;;;;;;;11.14;56.86;98373.09;4919227;29;20467;-73
2024/01/03 09:35:42;;;;;;;16.08;10.82;;;;;;;11.27;56.69;98372.88;4918854;29;20098;-72
2024/01/03 09:38:07;;;;;;;15.95;11.13;;;;;;;11.33;56.29;98355.84;4935936;29;20032;-73
2024/01/03 09:40:33;;;;;;;19.52;12.00;;;;;;;11.38;55.94;98357.09;4918792;29;20051;-73
2024/01/03 09:43:02;;;;;;;21.17;12.05;;;;;;;11.44;55.98;98354.94;4918280;29;20039;-73
2024/01/03 09:45:28;;;;;;;19.17;12.00;;;;;;;11.48;55.99;98335.41;4919159;29;20099;-73
2024/01/03 09:47:54;;;;;;;18.05;11.93;;;;;;;11.57;55.74;98339.84;4918752;29;20495;-73
2024/01/03 09:50:21;;;;;;;21.83;12.75;;;;;;;11.53;55.39;98333.25;4918961;29;20035;-73
2024/01/03 09:52:46;;;;;;;17.83;11.90;;;;;;;11.52;55.48;98329.78;4919159;29;20059;-72
2024/01/03 09:55:12;;;;;;;20.00;12.40;;;;;;;11.47;55.75;98334.59;4903507;29;20435;-72
2024/01/03 09:57:38;;;;;;;17.20;12.02;;;;;;;11.47;55.79;98329.34;4919216;29;20036;-73
2024/01/03 10:00:05;;;;;;;19.55;12.38;;;;;;;11.45;55.63;98322.59;4918946;29;20443;-72
2024/01/03 10:02:30;;;;;;;20.38;12.57;;;;;;;11.48;55.48;98327.56;4902670;29;20058;-73
2024/01/03 10:04:56;;;;;;;19.70;12.23;;;;;;;11.45;55.39;98320.84;4918736;29;20407;-72
2024/01/03 10:07:34;;;;;;;19.70;12.00;;;;;;;11.40;55.68;98320.38;4918750;29;20117;-72
2024/01/03 10:10:00;;;;;;;24.55;12.35;;;;;;;11.36;55.77;98316.41;4902801;29;20040;-74
2024/01/03 10:12:32;;;;;;;20.15;11.85;;;;;;;11.33;55.94;98325.31;4918833;29;20031;-72
2024/01/03 10:15:13;;;;;;;22.00;12.45;;;;;;;11.27;56.01;98306.72;4919035;29;20027;-74
2024/01/03 10:17:38;;;;;;;18.60;11.70;;;;;;;11.23;55.78;98293.94;4902401;29;20491;-74
2024/01/03 10:20:22;;;;;;;18.80;11.05;;;;;;;11.25;56.34;98292.97;4918451;29;20039;-72
2024/01/03 10:22:47;;;;;;;17.67;11.52;;;;;;;11.20;56.07;98298.59;4918416;29;20044;-72
2024/01/03 10:25:15;;;;;;;19.20;11.35;;;;;;;11.13;56.36;98294.84;4879044;29;1182360;-73
2024/01/03 10:27:41;;;;;;;18.05;11.85;;;;;;;11.16;56.41;98289.34;4934942;29;20035;-71
2024/01/03 10:30:14;;;;;;;19.25;12.57;;;;;;;11.10;56.46;98285.50;4918993;29;20048;-73
2024/01/03 10:32:39;;;;;;;20.98;12.57;;;;;;;11.09;56.47;98283.84;4919355;29;20032;-70
2024/01/03 10:35:15;;;;;;;21.35;13.30;;;;;;;11.09;56.46;98289.06;4919069;29;20059;-72
2024/01/03 10:37:40;;;;;;;20.85;12.48;;;;;;;11.04;56.60;98281.63;4903351;29;20039;-72
2024/01/03 10:40:06;;;;;;;20.52;12.75;;;;;;;10.89;57.18;98279.50;4934781;29;20036;-72
2024/01/03 10:42:32;;;;;;;20.13;12.60;;;;;;;10.74;57.43;98285.06;4918142;29;20048;-72
2024/01/03 10:44:57;;;;;;;18.33;11.65;;;;;;;10.76;57.57;98279.69;4919074;29;20036;-72
2024/01/03 10:47:23;;;;;;;18.58;11.68;;;;;;;10.75;57.60;98273.63;4918132;29;20479;-72
2024/01/03 10:49:48;;;;;;;16.88;11.88;;;;;;;10.74;57.88;98271.19;4934935;29;20032;-72
2024/01/03 10:52:14;;;;;;;16.27;11.32;;;;;;;10.74;57.81;98274.63;4918470;29;20035;-74
2024/01/03 10:54:42;;;;;;;20.20;11.85;;;;;;;10.74;57.94;98264.16;4918969;29;20040;-72
2024/01/03 10:57:08;;;;;;;20.02;11.57;;;;;;;10.74;57.83;98264.16;4919149;29;20039;-72
2024/01/03 10:59:36;;;;;;;15.15;10.70;;;;;;;10.70;58.02;98249.72;4934560;29;20039;-72
2024/01/03 11:02:17;;;;;;;16.65;10.57;;;;;;;10.75;57.88;98249.31;4903212;29;20087;-72
2024/01/03 11:05:02;;;;;;;14.73;10.43;;;;;;;10.72;57.68;98244.34;4920006;29;20039;-74
2024/01/03 11:07:39;;;;;;;15.57;10.90;;;;;;;10.73;57.94;98232.97;4937741;29;20042;-72
2024/01/03 11:10:05;;;;;;;19.53;10.93;;;;;;;10.78;57.72;98249.06;4921804;29;20037;-73
2024/01/03 11:12:31;;;;;;;17.10;11.07;;;;;;;10.78;57.83;98236.00;4937096;29;20366;-73
2024/01/03 11:15:25;;;;;;;17.17;9.93;;;;;;;10.79;58.04;98235.88;4954531;29;20035;-75
2024/01/03 11:17:50;;;;;;;15.40;10.70;;;;;;;10.77;58.12;98218.69;4921775;28;20045;-73
2024/01/03 11:20:16;;;;;;;19.20;11.10;;;;;;;10.81;57.94;98217.47;4922109;29;20031;-73
2024/01/03 11:22:54;;;;;;;23.05;11.07;;;;;;;10.83;58.09;98211.19;4905667;29;20086;-73